logo
Search for airport 
image banner adimage banner adimage banner ad
image banner ad

FWSJ - Nsanje

Located in Nsanje, Malawi

ICAO - FWSJ, IATA -

Data provided by Airmate  

General information

Coordinates: S16°55'0" E35°15'0"
Elevation is 200 feet MSL.
 
View others Airports in Nsanje

Operational data

Special qualification required
Current time UTC:
Current local time:
Weather at : - ( 0 km )
METAR: TXKF 131955Z 23010KT 200V260 2500 RA BR FEW015 BKN043 OVC078 17/16 Q1016
View NOTAMs / SUP AIP / TFR affecting this airport [VIEW]
Communications frequencies: [VIEW]

Runways:

RWY identifierQFULength (ft)Width (ft)SurfaceLDA (ft)
0100UNK
1900UNK

Airport contact information

Address: Nsanje Malawi

Satellite view of FWSJ